Miltonia — SE4709 — position and weather

sailwx.info

Track history (hours):
 
Tides and Currents Weather Stations Pressure Air Temp Water Temp Dewpoint Dewpoint Depression Visibility Wind Speed Wind Dir Waves Ship Positions

Miltonia

Last reported at 2018-Jun-21 10:27 UTC. Time now 2018-Jun-21 14:31 UTC.
Position N 55°07' E 010°58'.

Length 12 m.

Type: Pleasure craft. MMSI: 265704790.

Date/timePositionNaut miles runAvg speedWind from/ knotsBaromVisibWave heightAir tempDewpointWater temp
2018-Jun-21 10:27N 55°07' E 010°58'3 5.4
2018-Jun-21 09:53N 55°04' E 010°57'2 5.6
2018-Jun-21 09:29N 55°02' E 010°55'2 4.6
2018-Jun-21 09:01N 54°60' E 010°54'2 4.8
2018-Jun-21 08:30N 54°58' E 010°52'2 4.1
2018-Jun-21 07:58N 54°56' E 010°50'0 0.0
2018-Jun-20 16:44N 54°56' E 010°50'0 0.0
2018-Jun-20 16:29N 54°56' E 010°50'0 0.4
2018-Jun-20 16:00N 54°56' E 010°50'4 7.4
2018-Jun-20 15:30N 54°52' E 010°49'4 8.1
2018-Jun-20 15:00N 54°48' E 010°47'4 8.1
2018-Jun-20 14:30N 54°45' E 010°45'4 7.4
2018-Jun-20 14:00N 54°42' E 010°41'4 7.2
2018-Jun-20 13:27N 54°39' E 010°36'34 5.0
2018-Jun-20 06:42N 54°21' E 009°46'2 6.9
2018-Jun-20 06:27N 54°20' E 009°44'1 0.1
2018-Jun-19 18:59N 54°20' E 009°43'3 5.8
2018-Jun-19 18:30N 54°17' E 009°40'3 7.0
2018-Jun-19 18:00N 54°15' E 009°37'3 6.9
2018-Jun-19 17:30N 54°12' E 009°33'4 7.0
2018-Jun-19 17:00N 54°11' E 009°27'4 7.1
2018-Jun-19 16:29N 54°09' E 009°22'8 6.7
2018-Jun-19 15:18N 54°01' E 009°18'2 6.9
2018-Jun-19 14:58N 53°59' E 009°17'3 7.0
2018-Jun-19 14:29N 53°56' E 009°13'3 6.8
2018-Jun-19 14:00N 53°54' E 009°10'1 2.0
2018-Jun-19 13:30N 53°53' E 009°09'2 4.1
2018-Jun-19 13:00N 53°52' E 009°06'3 6.5
2018-Jun-19 12:30N 53°51' E 009°00'3 5.6
2018-Jun-19 12:00N 53°51' E 008°56'2 5.1
2018-Jun-19 11:30N 53°50' E 008°52'2 3.8
2018-Jun-19 10:59N 53°50' E 008°48'2 3.8
2018-Jun-19 10:29N 53°51' E 008°45'2 3.4
2018-Jun-19 10:00N 53°52' E 008°43'1 0.0
2018-Jun-18 04:16N 53°52' E 008°42'1 4.6
2018-Jun-18 03:59N 53°54' E 008°42'5 7.4
2018-Jun-18 03:23N 53°57' E 008°37'4 8.2
2018-Jun-18 02:57N 53°58' E 008°31'116 7.0
2018-Jun-17 10:26N 53°28' E 005°21'4 8.3
2018-Jun-17 10:00N 53°27' E 005°16'4 8.2
2018-Jun-17 09:30N 53°26' E 005°09'4 8.3
2018-Jun-17 09:00N 53°24' E 005°03'4 8.4
2018-Jun-17 08:29N 53°21' E 004°57'21 8.2
2018-Jun-17 05:57N 53°02' E 004°42'3 6.6
2018-Jun-17 05:30N 52°60' E 004°43'2 3.6
2018-Jun-17 05:00N 52°59' E 004°45'1 0.1
2018-Jun-16 09:37N 52°58' E 004°47'0 0.0
2018-Jun-16 09:30N 52°58' E 004°47'2 4.3
2018-Jun-16 08:58N 52°58' E 004°43'4 7.6
2018-Jun-16 08:30N 52°54' E 004°42'4 7.1
2018-Jun-16 08:00N 52°51' E 004°40'4 7.1
2018-Jun-16 07:24N 52°47' E 004°39'11 7.9
2018-Jun-16 06:02N 52°36' E 004°35'1 8.2
2018-Jun-16 05:53N 52°35' E 004°34'3 8.3
2018-Jun-16 05:30N 52°32' E 004°33'4 7.6
2018-Jun-16 05:00N 52°28' E 004°33'1 1.7
2018-Jun-16 04:28N 52°27' E 004°34'0 0.0
2018-Jun-14 12:50N 52°27' E 004°34'0 0.4
2018-Jun-14 12:29N 52°28' E 004°34'0 0.4
2018-Jun-14 12:00N 52°28' E 004°34'2 4.5
2018-Jun-14 11:30N 52°26' E 004°30'3 6.9
2018-Jun-14 11:00N 52°24' E 004°27'3 6.6
2018-Jun-14 10:30N 52°21' E 004°24'3 6.7
2018-Jun-14 10:00N 52°18' E 004°21'3 6.5
2018-Jun-14 09:30N 52°16' E 004°18'3 6.3
2018-Jun-14 09:00N 52°13' E 004°15'3 6.2
2018-Jun-14 08:30N 52°11' E 004°12'3 6.3
2018-Jun-14 08:00N 52°08' E 004°09'3 6.6
2018-Jun-14 07:30N 52°05' E 004°06'4 7.2
2018-Jun-14 07:00N 52°02' E 004°02'3 6.7
2018-Jun-14 06:30N 51°59' E 004°05'510.2
2018-Jun-14 06:00N 51°57' E 004°12'5 9.2
2018-Jun-14 05:28N 51°54' E 004°18'4 7.4
2018-Jun-14 05:00N 51°54' E 004°24'  
2018-Jun-11 10:45N 51°54' E 004°24'1 4.5
2018-Jun-11 10:30N 51°54' E 004°26'  
Track history (hours):
 
Tides and Currents Weather Stations Pressure Air Temp Water Temp Dewpoint Dewpoint Depression Visibility Wind Speed Wind Dir Waves Ship Positions

Miltonia

Last reported at 2018-Jun-21 10:27 UTC. Time now 2018-Jun-21 14:31 UTC.
Position N 55°07' E 010°58'.

Length 12 m.

Type: Pleasure craft. MMSI: 265704790.

Date/timePositionNaut miles runAvg speedWind from/ knotsBaromVisibWave heightAir tempDewpointWater temp
2018-Jun-21 10:27N 55°07' E 010°58'3 5.4
2018-Jun-21 09:53N 55°04' E 010°57'2 5.6
2018-Jun-21 09:29N 55°02' E 010°55'2 4.6
2018-Jun-21 09:01N 54°60' E 010°54'2 4.8
2018-Jun-21 08:30N 54°58' E 010°52'2 4.1
2018-Jun-21 07:58N 54°56' E 010°50'0 0.0
2018-Jun-20 16:44N 54°56' E 010°50'0 0.0
2018-Jun-20 16:29N 54°56' E 010°50'0 0.4
2018-Jun-20 16:00N 54°56' E 010°50'4 7.4
2018-Jun-20 15:30N 54°52' E 010°49'4 8.1
2018-Jun-20 15:00N 54°48' E 010°47'4 8.1
2018-Jun-20 14:30N 54°45' E 010°45'4 7.4
2018-Jun-20 14:00N 54°42' E 010°41'4 7.2
2018-Jun-20 13:27N 54°39' E 010°36'34 5.0
2018-Jun-20 06:42N 54°21' E 009°46'2 6.9
2018-Jun-20 06:27N 54°20' E 009°44'1 0.1
2018-Jun-19 18:59N 54°20' E 009°43'3 5.8
2018-Jun-19 18:30N 54°17' E 009°40'3 7.0
2018-Jun-19 18:00N 54°15' E 009°37'3 6.9
2018-Jun-19 17:30N 54°12' E 009°33'4 7.0
2018-Jun-19 17:00N 54°11' E 009°27'4 7.1
2018-Jun-19 16:29N 54°09' E 009°22'8 6.7
2018-Jun-19 15:18N 54°01' E 009°18'2 6.9
2018-Jun-19 14:58N 53°59' E 009°17'3 7.0
2018-Jun-19 14:29N 53°56' E 009°13'3 6.8
2018-Jun-19 14:00N 53°54' E 009°10'1 2.0
2018-Jun-19 13:30N 53°53' E 009°09'2 4.1
2018-Jun-19 13:00N 53°52' E 009°06'3 6.5
2018-Jun-19 12:30N 53°51' E 009°00'3 5.6
2018-Jun-19 12:00N 53°51' E 008°56'2 5.1
2018-Jun-19 11:30N 53°50' E 008°52'2 3.8
2018-Jun-19 10:59N 53°50' E 008°48'2 3.8
2018-Jun-19 10:29N 53°51' E 008°45'2 3.4
2018-Jun-19 10:00N 53°52' E 008°43'1 0.0
2018-Jun-18 04:16N 53°52' E 008°42'1 4.6
2018-Jun-18 03:59N 53°54' E 008°42'5 7.4
2018-Jun-18 03:23N 53°57' E 008°37'4 8.2
2018-Jun-18 02:57N 53°58' E 008°31'116 7.0
2018-Jun-17 10:26N 53°28' E 005°21'4 8.3
2018-Jun-17 10:00N 53°27' E 005°16'4 8.2
2018-Jun-17 09:30N 53°26' E 005°09'4 8.3
2018-Jun-17 09:00N 53°24' E 005°03'4 8.4
2018-Jun-17 08:29N 53°21' E 004°57'21 8.2
2018-Jun-17 05:57N 53°02' E 004°42'3 6.6
2018-Jun-17 05:30N 52°60' E 004°43'2 3.6
2018-Jun-17 05:00N 52°59' E 004°45'1 0.1
2018-Jun-16 09:37N 52°58' E 004°47'0 0.0
2018-Jun-16 09:30N 52°58' E 004°47'2 4.3
2018-Jun-16 08:58N 52°58' E 004°43'4 7.6
2018-Jun-16 08:30N 52°54' E 004°42'4 7.1
2018-Jun-16 08:00N 52°51' E 004°40'4 7.1
2018-Jun-16 07:24N 52°47' E 004°39'11 7.9
2018-Jun-16 06:02N 52°36' E 004°35'1 8.2
2018-Jun-16 05:53N 52°35' E 004°34'3 8.3
2018-Jun-16 05:30N 52°32' E 004°33'4 7.6
2018-Jun-16 05:00N 52°28' E 004°33'1 1.7
2018-Jun-16 04:28N 52°27' E 004°34'0 0.0
2018-Jun-14 12:50N 52°27' E 004°34'0 0.4
2018-Jun-14 12:29N 52°28' E 004°34'0 0.4
2018-Jun-14 12:00N 52°28' E 004°34'2 4.5
2018-Jun-14 11:30N 52°26' E 004°30'3 6.9
2018-Jun-14 11:00N 52°24' E 004°27'3 6.6
2018-Jun-14 10:30N 52°21' E 004°24'3 6.7
2018-Jun-14 10:00N 52°18' E 004°21'3 6.5
2018-Jun-14 09:30N 52°16' E 004°18'3 6.3
2018-Jun-14 09:00N 52°13' E 004°15'3 6.2
2018-Jun-14 08:30N 52°11' E 004°12'3 6.3
2018-Jun-14 08:00N 52°08' E 004°09'3 6.6
2018-Jun-14 07:30N 52°05' E 004°06'4 7.2
2018-Jun-14 07:00N 52°02' E 004°02'3 6.7
2018-Jun-14 06:30N 51°59' E 004°05'510.2
2018-Jun-14 06:00N 51°57' E 004°12'5 9.2
2018-Jun-14 05:28N 51°54' E 004°18'4 7.4
2018-Jun-14 05:00N 51°54' E 004°24'  
2018-Jun-11 10:45N 51°54' E 004°24'1 4.5
2018-Jun-11 10:30N 51°54' E 004°26'  

Dump ship's entire track history